Time;durP1;ratioP1;P1;durP2;ratioP2;P2;SDS_P1;SDS_P2;PMS_P1;PMS_P2;Temp;Humidity;BMP_temperature;BMP_pressure;BME280_temperature;BME280_humidity;BME280_pressure;Samples;Min_cycle;Max_cycle;Signal;HPM_P1;HPM_P2
2022/04/10 00:01:53;;;;;;;5.32;3.10;;;18.60;57.40;;;;;;4954002;28;20317;-60
2022/04/10 00:04:23;;;;;;;5.80;3.35;;;18.60;57.40;;;;;;4953336;28;20689;-61
2022/04/10 00:06:56;;;;;;;4.82;3.13;;;18.70;57.40;;;;;;4952933;28;20810;-61
2022/04/10 00:09:26;;;;;;;4.80;3.25;;;18.70;57.40;;;;;;4953329;29;20927;-61
2022/04/10 00:11:56;;;;;;;7.70;3.42;;;18.70;57.40;;;;;;4953928;28;20282;-61
2022/04/10 00:14:27;;;;;;;7.28;3.42;;;18.80;57.40;;;;;;4952980;28;20758;-60
2022/04/10 00:16:57;;;;;;;4.95;3.42;;;18.80;57.40;;;;;;4953034;28;20286;-60
2022/04/10 00:19:28;;;;;;;6.53;2.97;;;18.80;57.50;;;;;;4952775;28;20305;-60
2022/04/10 00:22:00;;;;;;;6.97;3.35;;;18.80;57.50;;;;;;4953096;28;20290;-54
2022/04/10 00:24:30;;;;;;;14.32;3.92;;;18.80;57.40;;;;;;4952855;28;20588;-49
2022/04/10 00:27:01;;;;;;;12.43;3.72;;;18.90;57.50;;;;;;4953190;28;20242;-52
2022/04/10 00:29:31;;;;;;;11.75;4.13;;;18.90;57.60;;;;;;4953444;28;20247;-52
2022/04/10 00:32:02;;;;;;;17.45;4.38;;;18.90;57.90;;;;;;4951145;28;20274;-50
2022/04/10 00:34:32;;;;;;;16.17;4.65;;;18.90;58.10;;;;;;4951047;28;20281;-52
2022/04/10 00:37:05;;;;;;;14.25;3.72;;;18.90;58.10;;;;;;4952840;28;20205;-55
2022/04/10 00:39:35;;;;;;;13.40;3.67;;;18.90;58.20;;;;;;4953050;28;20253;-49
2022/04/10 00:42:06;;;;;;;13.30;4.05;;;18.90;58.10;;;;;;4953201;28;20274;-54
2022/04/10 00:44:36;;;;;;;9.82;3.25;;;19.00;57.80;;;;;;4952371;28;20695;-49
2022/04/10 00:47:10;;;;;;;15.55;4.10;;;19.00;57.60;;;;;;4952757;28;20223;-54
2022/04/10 00:49:40;;;;;;;10.77;3.50;;;19.00;57.40;;;;;;4952119;28;20219;-53
2022/04/10 00:52:13;;;;;;;16.17;3.92;;;19.00;57.30;;;;;;4952639;28;20657;-58
2022/04/10 00:54:43;;;;;;;10.90;3.17;;;19.00;57.10;;;;;;4952512;28;20661;-59
2022/04/10 00:57:15;;;;;;;12.52;3.55;;;19.00;57.10;;;;;;4952875;28;20234;-60
2022/04/10 00:59:46;;;;;;;7.85;3.17;;;19.10;57.10;;;;;;4952528;28;20226;-58
2022/04/10 01:02:16;;;;;;;8.93;2.90;;;19.00;57.10;;;;;;4952223;28;20290;-59
2022/04/10 01:04:48;;;;;;;11.25;2.90;;;19.10;57.10;;;;;;4951436;28;20648;-58
2022/04/10 01:07:22;;;;;;;10.98;3.13;;;19.10;57.20;;;;;;4952429;28;20206;-58
2022/04/10 01:09:53;;;;;;;8.85;3.20;;;19.10;57.20;;;;;;4952381;28;20301;-60
2022/04/10 01:12:23;;;;;;;7.28;2.65;;;19.20;57.20;;;;;;4952503;28;20634;-58
2022/04/10 01:14:54;;;;;;;9.05;2.95;;;19.20;57.10;;;;;;4952938;28;20634;-60
2022/04/10 01:17:25;;;;;;;9.38;3.05;;;19.20;57.10;;;;;;4951112;28;20238;-60
2022/04/10 01:19:57;;;;;;;7.65;2.80;;;19.20;57.10;;;;;;4951446;28;20314;-57
2022/04/10 01:22:46;;;;;;;9.27;3.15;;;19.30;57.10;;;;;;4951673;28;20270;-60
2022/04/10 01:25:17;;;;;;;8.38;2.72;;;19.30;57.00;;;;;;4952428;28;20234;-61
2022/04/10 01:27:47;;;;;;;8.52;3.10;;;19.40;57.00;;;;;;4951411;28;20278;-60
2022/04/10 01:30:18;;;;;;;6.78;2.53;;;19.40;57.10;;;;;;4951849;28;20315;-60
2022/04/10 01:32:48;;;;;;;8.85;2.80;;;19.40;57.70;;;;;;4951981;28;20707;-60
2022/04/10 01:35:20;;;;;;;7.45;2.55;;;19.40;57.00;;;;;;4952486;28;20637;-63
2022/04/10 01:37:54;;;;;;;7.13;2.95;;;19.50;57.10;;;;;;4953130;28;20230;-60
2022/04/10 01:40:24;;;;;;;7.80;2.90;;;19.50;57.00;;;;;;4952387;28;20305;-58
2022/04/10 01:42:55;;;;;;;7.75;2.60;;;19.50;57.00;;;;;;4951334;28;20237;-61
2022/04/10 01:45:25;;;;;;;7.00;2.88;;;19.60;56.90;;;;;;4951278;28;20322;-59
2022/04/10 01:47:56;;;;;;;7.45;2.65;;;19.60;57.10;;;;;;4951265;28;20230;-59
2022/04/10 01:50:26;;;;;;;6.35;2.80;;;19.60;57.20;;;;;;4950837;28;20824;-60
2022/04/10 01:52:59;;;;;;;8.85;3.00;;;19.70;57.10;;;;;;4952230;28;20277;-58
2022/04/10 01:55:29;;;;;;;8.15;3.00;;;19.70;57.10;;;;;;4953079;28;20203;-60
2022/04/10 01:57:59;;;;;;;8.07;2.35;;;19.80;57.00;;;;;;4952243;28;20209;-62
2022/04/10 02:00:30;;;;;;;6.35;2.80;;;19.80;56.80;;;;;;4952834;28;20321;-59
2022/04/10 02:03:00;;;;;;;7.35;2.83;;;19.90;56.70;;;;;;4952753;28;20226;-61
2022/04/10 02:05:31;;;;;;;8.80;2.85;;;19.90;56.50;;;;;;4952711;28;20273;-58
2022/04/10 02:08:03;;;;;;;7.85;2.22;;;19.90;56.40;;;;;;4952588;28;20290;-60
2022/04/10 02:10:34;;;;;;;3.78;1.90;;;19.90;56.30;;;;;;4952374;28;20305;-62
2022/04/10 02:13:04;;;;;;;7.13;2.42;;;20.00;56.30;;;;;;4952475;28;20198;-60
2022/04/10 02:15:34;;;;;;;8.02;2.53;;;20.00;56.10;;;;;;4949101;28;20282;-61
2022/04/10 02:18:05;;;;;;;5.35;2.28;;;20.00;55.80;;;;;;4949619;28;20281;-57
2022/04/10 02:20:35;;;;;;;6.40;2.80;;;20.10;55.70;;;;;;4951185;28;20277;-62
2022/04/10 02:25:50;;;;;;;5.18;2.03;;;20.10;55.70;;;;;;4967298;28;20681;-61
2022/04/10 02:28:21;;;;;;;4.88;2.17;;;20.10;55.70;;;;;;4970321;28;20872;-61
2022/04/10 02:30:51;;;;;;;5.05;2.15;;;20.20;55.70;;;;;;4952170;28;20656;-58
2022/04/10 02:33:22;;;;;;;4.45;2.08;;;20.20;55.70;;;;;;4950815;28;20749;-61
2022/04/10 02:35:52;;;;;;;5.85;2.30;;;20.20;55.70;;;;;;4951088;28;20237;-58
2022/04/10 02:38:25;;;;;;;4.68;2.40;;;20.20;55.60;;;;;;4951391;28;20278;-60
2022/04/10 02:40:55;;;;;;;7.38;2.05;;;20.20;55.40;;;;;;4950675;28;20241;-54
2022/04/10 02:43:25;;;;;;;4.68;1.52;;;20.30;55.30;;;;;;4950178;28;20694;-57
2022/04/10 02:45:56;;;;;;;8.32;2.15;;;20.30;55.20;;;;;;4951056;28;20651;-61
2022/04/10 02:48:26;;;;;;;10.00;2.10;;;20.30;54.80;;;;;;4949915;28;20331;-60
2022/04/10 02:50:57;;;;;;;15.52;3.03;;;20.30;54.50;;;;;;4951073;28;20283;-59
2022/04/10 02:53:29;;;;;;;7.80;2.05;;;20.30;54.30;;;;;;4950441;28;20211;-58
2022/04/10 02:56:00;;;;;;;11.52;2.20;;;20.30;54.30;;;;;;4950462;28;20249;-60
2022/04/10 02:58:30;;;;;;;10.10;2.33;;;20.40;54.30;;;;;;4951174;28;20282;-59
2022/04/10 03:01:01;;;;;;;10.65;1.95;;;20.40;54.10;;;;;;4950261;28;20297;-60
2022/04/10 03:03:32;;;;;;;12.85;2.53;;;20.40;54.00;;;;;;4951678;28;20282;-57
2022/04/10 03:06:02;;;;;;;7.38;1.92;;;20.40;53.80;;;;;;4951314;28;20286;-60
2022/04/10 03:08:34;;;;;;;10.85;2.97;;;20.40;53.90;;;;;;4952203;28;20282;-60
2022/04/10 03:11:05;;;;;;;7.85;1.92;;;20.40;54.00;;;;;;4955826;29;20281;-57
2022/04/10 03:13:36;;;;;;;7.32;1.90;;;20.50;53.90;;;;;;4956869;28;20190;-59
2022/04/10 03:16:06;;;;;;;7.10;1.90;;;20.50;53.90;;;;;;4957154;28;20230;-60
2022/04/10 03:18:37;;;;;;;9.73;1.95;;;20.50;54.00;;;;;;4956451;28;20239;-60
2022/04/10 03:21:07;;;;;;;7.90;2.25;;;20.50;53.90;;;;;;4956691;28;20289;-59
2022/04/10 03:23:40;;;;;;;4.90;1.73;;;20.50;53.90;;;;;;4958053;28;20282;-61
2022/04/10 03:26:10;;;;;;;7.22;2.10;;;20.50;53.80;;;;;;4957769;28;20281;-59
2022/04/10 03:28:41;;;;;;;5.22;1.75;;;20.50;53.80;;;;;;4956825;28;20605;-53
2022/04/10 03:31:12;;;;;;;7.63;1.80;;;20.50;53.80;;;;;;4956317;28;20581;-61
2022/04/10 03:33:42;;;;;;;5.82;1.98;;;20.50;53.70;;;;;;4956396;28;20226;-59
2022/04/10 03:36:13;;;;;;;3.63;1.75;;;20.60;53.80;;;;;;4956590;28;20305;-60
2022/04/10 03:38:45;;;;;;;6.88;2.28;;;20.60;53.80;;;;;;4956474;28;20195;-61
2022/04/10 03:41:16;;;;;;;4.82;1.63;;;20.60;53.80;;;;;;4958080;28;20285;-59
2022/04/10 03:43:46;;;;;;;4.10;1.80;;;20.60;53.60;;;;;;4957929;28;20222;-60
2022/04/10 03:46:16;;;;;;;6.80;1.90;;;20.60;53.60;;;;;;4957849;28;20282;-60
2022/04/10 03:48:47;;;;;;;5.28;1.77;;;20.60;53.70;;;;;;4957738;28;20281;-60
2022/04/10 03:51:17;;;;;;;6.53;1.85;;;20.70;53.70;;;;;;4957825;28;20195;-60
2022/04/10 03:53:49;;;;;;;5.13;1.83;;;20.70;53.60;;;;;;4957353;28;20286;-61
2022/04/10 03:56:20;;;;;;;7.45;2.00;;;20.70;53.60;;;;;;4957522;28;20287;-60
2022/04/10 03:58:50;;;;;;;3.60;1.45;;;20.70;53.60;;;;;;4957481;28;20289;-60
2022/04/10 04:01:21;;;;;;;3.33;1.55;;;20.70;53.60;;;;;;4957617;28;20289;-61
2022/04/10 04:03:52;;;;;;;4.72;1.80;;;20.80;53.60;;;;;;4957278;28;20299;-61
2022/04/10 04:06:23;;;;;;;3.55;1.65;;;20.80;53.50;;;;;;4957959;28;20289;-61
2022/04/10 04:08:55;;;;;;;4.95;1.73;;;20.80;53.40;;;;;;4957295;28;20234;-60
2022/04/10 04:11:25;;;;;;;4.82;1.42;;;20.80;53.20;;;;;;4954489;28;20226;-61
2022/04/10 04:13:56;;;;;;;4.35;1.75;;;20.80;53.10;;;;;;4957603;28;20199;-61
2022/04/10 04:16:27;;;;;;;4.53;1.70;;;20.90;53.20;;;;;;4957720;28;20203;-61
2022/04/10 04:18:57;;;;;;;5.22;1.75;;;20.90;53.20;;;;;;4957141;28;20226;-61
2022/04/10 04:21:27;;;;;;;4.82;1.77;;;20.90;53.20;;;;;;4953999;28;20234;-58
2022/04/10 04:24:00;;;;;;;4.38;1.58;;;20.90;53.20;;;;;;4954687;28;20611;-61
2022/04/10 04:26:30;;;;;;;6.53;1.83;;;20.90;53.20;;;;;;4954454;28;20291;-60
2022/04/10 04:29:00;;;;;;;4.40;1.75;;;20.90;53.30;;;;;;4954083;28;20298;-61
2022/04/10 04:31:31;;;;;;;5.90;1.83;;;20.90;53.30;;;;;;4952528;28;20290;-55
2022/04/10 04:34:01;;;;;;;6.00;3.10;;;21.00;53.40;;;;;;4952943;28;20404;-56
2022/04/10 04:36:32;;;;;;;7.85;3.85;;;20.90;53.30;;;;;;4953078;28;20290;-60
2022/04/10 04:39:05;;;;;;;27.70;13.13;;;21.00;53.20;;;;;;4952808;28;20214;-58
2022/04/10 04:41:35;;;;;;;24.85;12.20;;;21.00;53.00;;;;;;4951878;28;20191;-61
2022/04/10 04:44:06;;;;;;;26.20;12.25;;;21.00;53.00;;;;;;4953492;28;20281;-58
2022/04/10 04:46:37;;;;;;;25.45;12.80;;;21.00;53.00;;;;;;4953089;28;20281;-61
2022/04/10 04:49:07;;;;;;;26.40;12.63;;;21.00;53.00;;;;;;4951553;28;20303;-61
2022/04/10 04:51:38;;;;;;;22.17;11.18;;;21.00;53.00;;;;;;4953139;28;20305;-59
2022/04/10 04:54:10;;;;;;;19.58;10.60;;;21.00;53.00;;;;;;4951985;28;20238;-61
2022/04/10 04:56:41;;;;;;;19.73;10.90;;;21.00;53.10;;;;;;4952068;28;20299;-59
2022/04/10 04:59:12;;;;;;;23.55;11.65;;;21.00;53.10;;;;;;4952560;28;20246;-59
2022/04/10 05:01:43;;;;;;;20.60;11.25;;;21.00;53.10;;;;;;4952800;28;20194;-58
2022/04/10 05:04:14;;;;;;;20.27;10.82;;;21.10;53.20;;;;;;4951726;28;20278;-61
2022/04/10 05:06:44;;;;;;;22.75;11.13;;;21.00;53.10;;;;;;4952404;28;20282;-60
2022/04/10 05:09:16;;;;;;;21.02;11.43;;;21.10;53.10;;;;;;4952027;28;20302;-60
2022/04/10 05:11:47;;;;;;;19.95;10.73;;;21.10;53.00;;;;;;4951974;28;20231;-61
2022/04/10 05:14:17;;;;;;;22.60;11.10;;;21.10;53.00;;;;;;4952648;28;20297;-59
2022/04/10 05:16:48;;;;;;;17.45;9.73;;;21.10;53.00;;;;;;4951705;28;20282;-57
2022/04/10 05:19:19;;;;;;;17.33;9.60;;;21.10;52.90;;;;;;4951472;28;20309;-60
2022/04/10 05:21:49;;;;;;;19.13;10.23;;;21.10;53.00;;;;;;4951878;28;20195;-57
2022/04/10 05:24:21;;;;;;;17.50;10.10;;;21.10;53.00;;;;;;4952771;28;20294;-60
2022/04/10 05:26:52;;;;;;;20.85;10.85;;;21.10;53.00;;;;;;4951882;28;20278;-58
2022/04/10 05:29:22;;;;;;;18.80;10.15;;;21.10;53.00;;;;;;4951499;28;20297;-60
2022/04/10 05:31:53;;;;;;;16.25;10.02;;;21.10;53.00;;;;;;4950029;28;20205;-63
2022/04/10 05:34:23;;;;;;;14.60;9.27;;;21.10;53.00;;;;;;4951547;28;20274;-62
2022/04/10 05:36:53;;;;;;;15.68;8.90;;;21.10;53.10;;;;;;4951557;29;20290;-62
2022/04/10 05:39:26;;;;;;;16.92;9.70;;;21.10;53.20;;;;;;4953014;28;20218;-63
2022/04/10 05:41:56;;;;;;;18.52;10.13;;;21.10;53.20;;;;;;4952390;28;20282;-63
2022/04/10 05:44:27;;;;;;;17.38;10.00;;;21.10;53.10;;;;;;4951777;28;20755;-63
2022/04/10 05:46:57;;;;;;;16.33;8.95;;;21.10;53.10;;;;;;4951926;28;20702;-63
2022/04/10 05:49:27;;;;;;;14.82;8.88;;;21.10;53.10;;;;;;4951510;28;20310;-61
2022/04/10 05:51:58;;;;;;;16.77;9.40;;;21.10;53.10;;;;;;4951314;28;20293;-61
2022/04/10 05:54:30;;;;;;;15.65;8.75;;;21.10;53.00;;;;;;4952408;28;20302;-62
2022/04/10 05:57:01;;;;;;;16.50;8.90;;;21.10;53.00;;;;;;4952732;28;20663;-63
2022/04/10 05:59:31;;;;;;;16.02;9.20;;;21.10;53.00;;;;;;4952655;28;20223;-62
2022/04/10 06:02:01;;;;;;;15.77;9.25;;;21.10;53.00;;;;;;4952820;28;20674;-62
2022/04/10 06:04:32;;;;;;;14.27;8.52;;;21.10;53.10;;;;;;4949558;28;20687;-63
2022/04/10 06:07:02;;;;;;;16.85;9.05;;;21.10;53.20;;;;;;4943040;28;20295;-62
2022/04/10 06:09:35;;;;;;;15.05;9.27;;;21.10;53.30;;;;;;4952792;28;20772;-65
2022/04/10 06:12:05;;;;;;;14.02;8.57;;;21.10;53.30;;;;;;4952580;28;20295;-63
2022/04/10 06:14:36;;;;;;;14.35;8.60;;;21.10;53.30;;;;;;4952369;28;20209;-62
2022/04/10 06:17:07;;;;;;;13.63;8.52;;;21.00;53.20;;;;;;4952848;28;20226;-62
2022/04/10 06:19:37;;;;;;;15.13;8.55;;;21.10;53.30;;;;;;4952403;28;20314;-59
2022/04/10 06:22:08;;;;;;;15.18;8.63;;;21.10;53.30;;;;;;4952382;28;20751;-62
2022/04/10 06:24:41;;;;;;;13.38;8.15;;;21.10;53.30;;;;;;4952880;28;20207;-64
2022/04/10 06:27:11;;;;;;;15.52;7.75;;;21.10;53.30;;;;;;4952426;28;20282;-64
2022/04/10 06:29:42;;;;;;;12.32;7.85;;;21.10;53.40;;;;;;4952013;28;20302;-63
2022/04/10 06:32:13;;;;;;;11.60;8.18;;;21.10;53.30;;;;;;4952097;28;20210;-62
2022/04/10 06:34:43;;;;;;;12.63;8.20;;;21.00;53.30;;;;;;4951983;28;20290;-63
2022/04/10 06:37:14;;;;;;;12.00;7.65;;;21.00;53.30;;;;;;4951380;28;20725;-63
2022/04/10 06:39:47;;;;;;;13.52;7.65;;;21.00;53.30;;;;;;4952497;28;20234;-63
2022/04/10 06:42:17;;;;;;;10.55;7.32;;;21.00;53.30;;;;;;4952332;28;20286;-63
2022/04/10 06:44:47;;;;;;;13.73;7.72;;;21.00;53.40;;;;;;4951233;28;20285;-63
2022/04/10 06:47:18;;;;;;;12.07;7.68;;;21.00;53.40;;;;;;4951717;28;20286;-63
2022/04/10 06:49:48;;;;;;;13.80;8.38;;;21.00;53.40;;;;;;4951737;28;20306;-63
2022/04/10 06:52:19;;;;;;;13.75;8.13;;;21.00;53.50;;;;;;4951661;28;20195;-64
2022/04/10 06:54:51;;;;;;;11.90;7.72;;;21.00;53.50;;;;;;4947282;28;20278;-64
2022/04/10 06:57:21;;;;;;;13.68;7.80;;;20.90;53.40;;;;;;4950033;29;20286;-62
2022/04/10 06:59:52;;;;;;;12.30;8.15;;;20.90;53.40;;;;;;4951602;28;20300;-63
2022/04/10 07:02:23;;;;;;;12.55;8.23;;;20.90;53.40;;;;;;4951737;28;20199;-64
2022/04/10 07:04:53;;;;;;;12.60;8.70;;;20.90;53.50;;;;;;4951835;28;20286;-63
2022/04/10 07:07:23;;;;;;;12.45;8.50;;;20.90;53.50;;;;;;4951437;28;20277;-64
2022/04/10 07:09:56;;;;;;;13.93;9.27;;;20.90;53.60;;;;;;4951637;28;20308;-64
2022/04/10 07:12:26;;;;;;;12.23;8.30;;;20.80;53.50;;;;;;4951610;28;20277;-63
2022/04/10 07:14:57;;;;;;;12.63;8.60;;;20.80;53.40;;;;;;4951627;28;20722;-63
2022/04/10 07:17:27;;;;;;;12.98;9.00;;;20.80;53.40;;;;;;4951368;28;20759;-64
2022/04/10 07:19:57;;;;;;;12.15;8.02;;;20.80;53.40;;;;;;4951097;28;20466;-64
2022/04/10 07:25:16;;;;;;;12.93;8.70;;;20.80;53.40;;;;;;4952264;29;20252;-62
2022/04/10 07:27:47;;;;;;;14.15;8.88;;;20.80;53.50;;;;;;4951518;28;20742;-62
2022/04/10 07:30:17;;;;;;;11.35;8.13;;;20.70;53.50;;;;;;4951205;28;20318;-62
2022/04/10 07:32:54;;;;;;;11.63;8.00;;;20.70;53.50;;;;;;4951653;28;20630;-63
2022/04/10 07:35:26;;;;;;;11.82;8.15;;;20.70;53.60;;;;;;4951512;28;20750;-62
2022/04/10 07:37:56;;;;;;;11.13;7.60;;;20.70;53.50;;;;;;4951371;28;20679;-62
2022/04/10 07:40:28;;;;;;;12.40;8.15;;;20.70;53.60;;;;;;4951709;28;20319;-62
2022/04/10 07:43:00;;;;;;;12.15;7.88;;;20.70;53.70;;;;;;4951532;28;20286;-61
2022/04/10 07:48:17;;;;;;;10.93;7.28;;;20.60;53.60;;;;;;4951823;29;20277;-63
2022/04/10 07:50:47;;;;;;;11.07;7.57;;;20.60;53.60;;;;;;4951136;28;20225;-62
2022/04/10 07:53:18;;;;;;;10.27;7.75;;;20.60;53.60;;;;;;4951291;28;20206;-62
2022/04/10 07:55:50;;;;;;;11.80;8.00;;;20.60;53.70;;;;;;4952921;28;20234;-62
2022/04/10 07:58:21;;;;;;;11.43;7.82;;;20.60;53.70;;;;;;4955267;28;20286;-62
2022/04/10 08:00:51;;;;;;;10.52;7.38;;;20.50;53.70;;;;;;4955070;28;20305;-62
2022/04/10 08:03:22;;;;;;;10.38;7.47;;;20.50;53.70;;;;;;4955083;28;20281;-62
2022/04/10 08:05:52;;;;;;;10.98;6.95;;;20.50;53.70;;;;;;4954630;28;20761;-62
2022/04/10 08:08:23;;;;;;;10.35;7.43;;;20.50;53.80;;;;;;4953996;28;20740;-62
2022/04/10 08:10:55;;;;;;;10.38;7.15;;;20.50;53.80;;;;;;4951187;28;20211;-62
2022/04/10 08:13:25;;;;;;;9.93;6.97;;;20.50;53.80;;;;;;4954918;28;20740;-61
2022/04/10 08:15:56;;;;;;;9.52;7.18;;;20.50;53.80;;;;;;4954904;28;20282;-62
2022/04/10 08:18:26;;;;;;;10.15;7.00;;;20.50;53.80;;;;;;4954828;28;20310;-62
2022/04/10 08:20:57;;;;;;;10.27;7.20;;;20.40;53.80;;;;;;4954647;28;20214;-63
2022/04/10 08:23:39;;;;;;;;;;;;;;;;;;;;;
2022/04/10 08:26:13;;;;;;;9.07;6.68;;;20.40;53.80;;;;;;4971778;28;20244;-54
2022/04/10 08:28:44;;;;;;;10.13;6.60;;;20.40;53.80;;;;;;4973532;28;20285;-51
2022/04/10 08:31:14;;;;;;;9.23;5.70;;;20.30;53.80;;;;;;4954744;28;20738;-51
2022/04/10 08:33:45;;;;;;;10.77;6.38;;;20.30;54.20;;;;;;4950783;28;20282;-53
2022/04/10 08:36:15;;;;;;;8.10;6.22;;;20.30;54.80;;;;;;4952566;28;20239;-59
2022/04/10 08:38:45;;;;;;;9.70;5.90;;;20.30;54.80;;;;;;4951822;28;20223;-56
2022/04/10 08:41:18;;;;;;;10.60;6.13;;;20.30;54.70;;;;;;4952863;28;20290;-51
2022/04/10 08:43:49;;;;;;;12.18;6.93;;;20.20;54.60;;;;;;4952690;28;20289;-55
2022/04/10 08:46:22;;;;;;;10.00;6.25;;;20.20;54.60;;;;;;4952464;28;20226;-54
2022/04/10 08:48:53;;;;;;;10.43;6.63;;;20.20;54.60;;;;;;4952236;28;20213;-52
2022/04/10 08:51:25;;;;;;;8.95;5.80;;;20.20;54.50;;;;;;4952058;28;20286;-55
2022/04/10 08:53:56;;;;;;;8.85;5.88;;;20.20;54.50;;;;;;4953109;28;20227;-57
2022/04/10 08:56:29;;;;;;;9.32;6.00;;;20.20;54.50;;;;;;4952577;28;20309;-55
2022/04/10 08:58:59;;;;;;;8.98;6.03;;;20.10;54.50;;;;;;4952539;28;20783;-56
2022/04/10 09:01:29;;;;;;;9.50;6.00;;;20.10;54.40;;;;;;4952064;28;20751;-51
2022/04/10 09:04:00;;;;;;;7.55;5.68;;;20.10;54.40;;;;;;4952096;28;20634;-50
2022/04/10 09:06:30;;;;;;;8.82;6.20;;;20.10;54.40;;;;;;4952135;28;20661;-48
2022/04/10 09:09:13;;;;;;;9.27;5.45;;;20.10;54.40;;;;;;4952388;28;20223;-50
2022/04/10 09:11:46;;;;;;;9.18;6.10;;;20.00;54.40;;;;;;4951523;28;20201;-50
2022/04/10 09:14:24;;;;;;;10.93;6.00;;;20.00;54.40;;;;;;4952184;28;20254;-47
2022/04/10 09:17:12;;;;;;;9.38;5.47;;;20.00;54.40;;;;;;4951762;28;20274;-50
2022/04/10 09:19:44;;;;;;;9.15;5.70;;;19.90;54.30;;;;;;4952139;28;20237;-47
2022/04/10 09:22:25;;;;;;;7.20;5.43;;;19.90;54.40;;;;;;4951655;28;20203;-52
2022/04/10 10:03:55;;;;;;;8.82;5.03;;;19.60;54.40;;;;;;4968245;23;20322;-54
2022/04/10 10:06:27;;;;;;;7.95;4.85;;;19.50;54.40;;;;;;4949665;28;20313;-62
2022/04/10 10:08:58;;;;;;;7.88;5.15;;;19.50;54.40;;;;;;4950763;28;20655;-60
2022/04/10 10:11:29;;;;;;;7.03;5.40;;;19.50;54.40;;;;;;4951100;28;20675;-59
2022/04/10 10:13:59;;;;;;;7.40;4.63;;;19.50;54.50;;;;;;4951111;28;20294;-58
2022/04/10 10:16:30;;;;;;;8.13;5.35;;;19.40;54.40;;;;;;4951251;28;20286;-61
2022/04/10 10:19:04;;;;;;;7.80;4.90;;;19.40;54.40;;;;;;4950459;28;20309;-61
2022/04/10 10:21:34;;;;;;;6.80;5.05;;;19.40;54.40;;;;;;4950281;28;20717;-63
2022/04/10 10:24:06;;;;;;;6.35;4.88;;;19.30;54.40;;;;;;4952052;28;20286;-61
2022/04/10 10:27:10;;;;;;;5.93;4.47;;;19.40;54.50;;;;;;4950983;28;20266;-62
2022/04/10 10:29:54;;;;;;;7.13;4.70;;;19.30;54.50;;;;;;4950747;28;20757;-63
2022/04/10 10:32:40;;;;;;;6.65;4.75;;;19.30;54.50;;;;;;4950638;29;20295;-63
2022/04/10 10:35:14;;;;;;;5.85;4.38;;;19.30;54.50;;;;;;4950884;28;20277;-58
2022/04/10 10:37:53;;;;;;;6.13;4.32;;;19.20;54.40;;;;;;4950748;28;20209;-63
2022/04/10 10:40:25;;;;;;;6.97;4.20;;;19.20;54.50;;;;;;4950054;28;20225;-58
2022/04/10 10:43:03;;;;;;;7.07;5.05;;;19.20;54.50;;;;;;4936358;28;20278;-55
2022/04/10 10:45:41;;;;;;;6.07;4.07;;;19.20;54.50;;;;;;4933615;29;20192;-56
2022/04/10 10:48:38;;;;;;;6.65;4.47;;;19.20;54.50;;;;;;4932753;29;20734;-55
2022/04/10 10:51:45;;;;;;;6.82;4.70;;;19.10;54.50;;;;;;4932908;29;20727;-59
2022/04/10 10:54:18;;;;;;;7.00;4.10;;;19.10;54.50;;;;;;4932664;29;20245;-53
2022/04/10 10:56:50;;;;;;;6.60;4.47;;;19.10;54.50;;;;;;4931858;29;20205;-53
2022/04/10 10:59:29;;;;;;;6.25;4.75;;;19.10;54.50;;;;;;4932936;29;20219;-56
2022/04/10 11:02:06;;;;;;;6.68;4.28;;;19.00;54.50;;;;;;4933113;29;20314;-59
2022/04/10 11:04:42;;;;;;;5.78;4.05;;;19.00;54.60;;;;;;4932864;29;20291;-57
2022/04/10 11:07:24;;;;;;;5.53;4.07;;;19.00;54.60;;;;;;4932932;29;20273;-55
2022/04/10 11:09:58;;;;;;;5.53;4.07;;;18.90;54.60;;;;;;4933124;29;20223;-57
2022/04/10 11:12:39;;;;;;;4.78;4.07;;;18.90;54.50;;;;;;4932743;29;20225;-59
2022/04/10 11:15:19;;;;;;;7.88;4.50;;;18.90;54.50;;;;;;4932691;29;20195;-59
2022/04/10 11:17:51;;;;;;;6.97;4.68;;;18.90;54.50;;;;;;4932896;29;20231;-60
2022/04/10 11:20:22;;;;;;;6.22;4.13;;;18.90;54.60;;;;;;4932569;29;20874;-58
2022/04/10 11:23:01;;;;;;;6.47;3.95;;;18.90;54.60;;;;;;4932666;29;20238;-55
2022/04/10 11:25:39;;;;;;;5.18;3.90;;;18.80;54.60;;;;;;4932715;29;20230;-56
2022/04/10 11:28:12;;;;;;;5.00;4.10;;;18.80;54.60;;;;;;4931938;29;20226;-60
2022/04/10 11:30:43;;;;;;;4.47;3.63;;;18.80;54.60;;;;;;4935381;29;20231;-59
2022/04/10 11:33:15;;;;;;;4.97;3.95;;;18.80;54.60;;;;;;4936783;29;20735;-58
2022/04/10 11:35:47;;;;;;;5.13;3.75;;;18.70;54.60;;;;;;4936423;29;20295;-58
2022/04/10 11:38:19;;;;;;;5.90;3.85;;;18.70;54.70;;;;;;4936748;29;20571;-60
2022/04/10 11:40:52;;;;;;;4.28;3.65;;;18.70;54.70;;;;;;4936451;29;20736;-60
2022/04/10 11:43:24;;;;;;;6.07;4.15;;;18.70;54.70;;;;;;4935888;29;20299;-59
2022/04/10 11:45:55;;;;;;;5.70;3.75;;;18.60;54.70;;;;;;4936032;29;20664;-57
2022/04/10 11:48:27;;;;;;;4.53;3.70;;;18.60;54.70;;;;;;4936090;29;20238;-60
2022/04/10 11:51:10;;;;;;;3.97;3.30;;;18.60;54.70;;;;;;4936043;29;20661;-59
2022/04/10 11:53:43;;;;;;;6.18;3.60;;;18.60;54.80;;;;;;4935972;29;20638;-58
2022/04/10 11:56:16;;;;;;;6.78;4.13;;;18.60;54.80;;;;;;4936204;29;20207;-60
2022/04/10 11:58:46;;;;;;;5.50;3.60;;;18.60;54.80;;;;;;4935836;29;20283;-60
2022/04/10 12:01:17;;;;;;;4.05;3.05;;;18.60;54.80;;;;;;4936059;29;20206;-60
2022/04/10 12:03:49;;;;;;;4.22;3.70;;;18.50;54.80;;;;;;4935940;29;20290;-59
2022/04/10 12:06:22;;;;;;;4.47;3.47;;;18.50;54.80;;;;;;4935837;29;20209;-61
2022/04/10 12:08:56;;;;;;;5.25;3.42;;;18.50;54.80;;;;;;4935505;29;20310;-58
2022/04/10 12:11:26;;;;;;;5.15;3.35;;;18.50;54.90;;;;;;4935776;29;20205;-58
2022/04/10 12:13:56;;;;;;;4.68;3.45;;;18.50;54.90;;;;;;4935184;29;20310;-56
2022/04/10 12:16:27;;;;;;;5.97;3.38;;;18.50;54.90;;;;;;4935641;29;20294;-59
2022/04/10 12:18:58;;;;;;;4.90;3.05;;;18.50;54.90;;;;;;4935731;29;20290;-59
2022/04/10 12:21:29;;;;;;;5.53;3.85;;;18.50;54.90;;;;;;4935626;29;20199;-57
2022/04/10 12:24:05;;;;;;;5.63;3.58;;;18.40;54.90;;;;;;4936114;29;20294;-57
2022/04/10 12:26:37;;;;;;;5.32;3.42;;;18.40;54.90;;;;;;4935362;29;20231;-57
2022/04/10 12:29:08;;;;;;;4.22;3.17;;;18.40;54.90;;;;;;4935517;29;20219;-57
2022/04/10 12:31:41;;;;;;;5.05;3.30;;;18.40;54.90;;;;;;4936975;29;20227;-60
2022/04/10 12:34:14;;;;;;;4.32;3.28;;;18.40;54.90;;;;;;4935631;29;20195;-60
2022/04/10 12:36:51;;;;;;;4.40;3.38;;;18.40;54.90;;;;;;4935356;29;20210;-61
2022/04/10 12:39:31;;;;;;;5.18;3.30;;;18.40;55.00;;;;;;4934562;29;20306;-60
2022/04/10 12:42:03;;;;;;;5.07;3.28;;;18.30;54.90;;;;;;4934781;29;20712;-59
2022/04/10 12:44:34;;;;;;;4.38;3.53;;;18.40;55.00;;;;;;4936322;29;20239;-59
2022/04/10 12:47:04;;;;;;;4.55;3.22;;;18.30;55.00;;;;;;4935410;29;20311;-60
2022/04/10 12:49:35;;;;;;;3.65;3.17;;;18.30;55.00;;;;;;4935624;29;20747;-59
2022/04/10 12:52:09;;;;;;;3.85;3.10;;;18.30;55.00;;;;;;4935705;29;20207;-59
2022/04/10 12:54:43;;;;;;;3.95;3.03;;;18.30;55.00;;;;;;4935367;29;20308;-59
2022/04/10 12:57:14;;;;;;;5.15;3.20;;;18.20;55.00;;;;;;4935519;29;20807;-59
2022/04/10 12:59:47;;;;;;;4.03;2.75;;;18.30;55.00;;;;;;4935643;29;20318;-59
2022/04/10 13:02:29;;;;;;;3.67;2.90;;;18.30;55.60;;;;;;4935430;29;20243;-57
2022/04/10 13:05:00;;;;;;;4.13;2.90;;;18.20;55.00;;;;;;4934754;29;20286;-57
2022/04/10 13:07:31;;;;;;;4.07;2.88;;;18.20;55.00;;;;;;4934528;29;20322;-59
2022/04/10 13:10:11;;;;;;;3.65;2.47;;;18.20;55.00;;;;;;4934468;29;20306;-58
2022/04/10 13:12:42;;;;;;;4.43;2.80;;;18.20;55.10;;;;;;4934233;29;20278;-58
2022/04/10 13:15:13;;;;;;;3.55;2.95;;;18.20;55.10;;;;;;4934026;29;20287;-59
2022/04/10 13:17:44;;;;;;;4.75;3.15;;;18.20;55.10;;;;;;4934401;29;20200;-57
2022/04/10 13:20:15;;;;;;;3.92;2.70;;;18.10;55.00;;;;;;4934743;29;20314;-58
2022/04/10 13:22:46;;;;;;;3.55;2.70;;;18.10;55.10;;;;;;4934724;29;20676;-59
2022/04/10 13:25:18;;;;;;;4.50;2.80;;;18.10;55.10;;;;;;4935155;29;20299;-60
2022/04/10 13:27:48;;;;;;;4.40;3.00;;;18.10;55.10;;;;;;4934099;29;20640;-58
2022/04/10 13:30:19;;;;;;;4.03;2.60;;;18.10;55.10;;;;;;4934498;29;20751;-59
2022/04/10 13:32:49;;;;;;;4.70;2.90;;;18.10;55.10;;;;;;4934478;29;20286;-59
2022/04/10 13:35:20;;;;;;;4.18;2.70;;;18.10;55.10;;;;;;4934214;29;20215;-59
2022/04/10 13:37:50;;;;;;;5.05;2.63;;;18.10;55.10;;;;;;4934486;29;20291;-60
2022/04/10 13:40:23;;;;;;;4.35;2.60;;;18.10;55.10;;;;;;4933905;29;20767;-56
2022/04/10 13:42:53;;;;;;;4.25;2.55;;;18.10;55.20;;;;;;4933654;29;20283;-56
2022/04/10 13:45:23;;;;;;;3.40;2.58;;;18.10;55.20;;;;;;4934424;29;20226;-57
2022/04/10 13:47:54;;;;;;;3.80;2.80;;;18.00;55.10;;;;;;4934192;29;20334;-56
2022/04/10 13:50:24;;;;;;;3.92;2.70;;;18.00;55.10;;;;;;4934054;29;20262;-57
2022/04/10 13:52:55;;;;;;;3.30;2.50;;;18.00;55.20;;;;;;4932970;29;20253;-59
2022/04/10 13:55:27;;;;;;;3.67;2.72;;;18.00;55.20;;;;;;4933808;29;20278;-57